sensor_id;sensor_type;location;lat;lon;timestamp;pressure;altitude;pressure_sealevel;temperature;humidity
35888;BME280;21990;42.540;23.496;2023-05-16T00:02:17;93273.38;;;13.18;99.86
35888;BME280;21990;42.540;23.496;2023-05-16T00:04:43;93265.09;;;13.20;99.80
35888;BME280;21990;42.540;23.496;2023-05-16T00:07:10;93262.81;;;13.19;99.82
35888;BME280;21990;42.540;23.496;2023-05-16T00:09:35;93264.31;;;13.20;99.79
35888;BME280;21990;42.540;23.496;2023-05-16T00:12:01;93262.97;;;13.13;99.50
35888;BME280;21990;42.540;23.496;2023-05-16T00:14:27;93256.38;;;13.11;99.73
35888;BME280;21990;42.540;23.496;2023-05-16T00:16:52;93258.63;;;13.12;99.56
35888;BME280;21990;42.540;23.496;2023-05-16T00:19:18;93260.91;;;13.14;99.57
35888;BME280;21990;42.540;23.496;2023-05-16T00:21:44;93253.53;;;13.11;99.26
35888;BME280;21990;42.540;23.496;2023-05-16T00:24:09;93252.91;;;13.05;100.00
35888;BME280;21990;42.540;23.496;2023-05-16T00:26:35;93247.06;;;13.03;100.00
35888;BME280;21990;42.540;23.496;2023-05-16T00:29:00;93247.06;;;13.03;100.00
35888;BME280;21990;42.540;23.496;2023-05-16T00:31:26;93253.06;;;12.99;100.00
35888;BME280;21990;42.540;23.496;2023-05-16T00:33:52;93251.50;;;12.91;100.00
35888;BME280;21990;42.540;23.496;2023-05-16T00:36:17;93238.72;;;12.97;100.00
35888;BME280;21990;42.540;23.496;2023-05-16T00:38:42;93247.00;;;12.95;100.00
35888;BME280;21990;42.540;23.496;2023-05-16T00:41:08;93244.91;;;12.96;100.00
35888;BME280;21990;42.540;23.496;2023-05-16T00:43:33;93241.34;;;12.95;100.00
35888;BME280;21990;42.540;23.496;2023-05-16T00:45:59;93242.78;;;12.89;100.00
35888;BME280;21990;42.540;23.496;2023-05-16T00:48:25;93221.69;;;12.90;100.00
35888;BME280;21990;42.540;23.496;2023-05-16T00:50:50;93220.91;;;12.81;100.00
35888;BME280;21990;42.540;23.496;2023-05-16T00:53:17;93217.72;;;12.85;100.00
35888;BME280;21990;42.540;23.496;2023-05-16T00:55:43;93221.28;;;12.85;100.00
35888;BME280;21990;42.540;23.496;2023-05-16T00:58:08;93217.53;;;12.83;100.00
35888;BME280;21990;42.540;23.496;2023-05-16T01:00:35;93219.19;;;12.78;100.00
35888;BME280;21990;42.540;23.496;2023-05-16T01:03:02;93228.56;;;12.73;100.00
35888;BME280;21990;42.540;23.496;2023-05-16T01:05:28;93218.25;;;12.76;100.00
35888;BME280;21990;42.540;23.496;2023-05-16T01:07:54;93224.22;;;12.72;100.00
35888;BME280;21990;42.540;23.496;2023-05-16T01:10:19;93215.00;;;12.72;100.00
35888;BME280;21990;42.540;23.496;2023-05-16T01:15:27;93217.25;;;12.73;100.00
35888;BME280;21990;42.540;23.496;2023-05-16T01:28:32;93216.81;;;12.62;100.00
35888;BME280;21990;42.540;23.496;2023-05-16T01:30:58;93209.31;;;12.64;100.00
35888;BME280;21990;42.540;23.496;2023-05-16T01:33:24;93210.59;;;12.63;100.00
35888;BME280;21990;42.540;23.496;2023-05-16T01:38:25;93201.38;;;12.63;100.00
35888;BME280;21990;42.540;23.496;2023-05-16T01:40:57;93193.44;;;12.61;100.00
35888;BME280;21990;42.540;23.496;2023-05-16T01:43:33;93201.91;;;12.61;100.00
35888;BME280;21990;42.540;23.496;2023-05-16T01:46:09;93186.06;;;12.58;100.00
35888;BME280;21990;42.540;23.496;2023-05-16T01:48:50;93185.31;;;12.58;100.00
35888;BME280;21990;42.540;23.496;2023-05-16T01:51:15;93174.75;;;12.58;100.00
35888;BME280;21990;42.540;23.496;2023-05-16T01:53:42;93182.47;;;12.58;100.00
35888;BME280;21990;42.540;23.496;2023-05-16T01:56:10;93174.56;;;12.56;100.00
35888;BME280;21990;42.540;23.496;2023-05-16T01:58:39;93180.38;;;12.51;100.00
35888;BME280;21990;42.540;23.496;2023-05-16T02:01:05;93176.03;;;12.50;100.00
35888;BME280;21990;42.540;23.496;2023-05-16T02:03:31;93167.13;;;12.46;100.00
35888;BME280;21990;42.540;23.496;2023-05-16T02:05:56;93163.38;;;12.43;100.00
35888;BME280;21990;42.540;23.496;2023-05-16T02:08:22;93165.25;;;12.41;100.00
35888;BME280;21990;42.540;23.496;2023-05-16T02:10:48;93163.56;;;12.45;100.00
35888;BME280;21990;42.540;23.496;2023-05-16T02:13:13;93161.84;;;12.42;100.00
35888;BME280;21990;42.540;23.496;2023-05-16T02:15:39;93166.38;;;12.45;100.00
35888;BME280;21990;42.540;23.496;2023-05-16T02:18:04;93166.94;;;12.44;100.00
35888;BME280;21990;42.540;23.496;2023-05-16T02:20:30;93158.13;;;12.47;100.00
35888;BME280;21990;42.540;23.496;2023-05-16T02:22:55;93158.47;;;12.44;100.00
35888;BME280;21990;42.540;23.496;2023-05-16T02:25:21;93156.06;;;12.48;100.00
35888;BME280;21990;42.540;23.496;2023-05-16T02:27:46;93158.31;;;12.49;100.00
35888;BME280;21990;42.540;23.496;2023-05-16T02:30:12;93164.94;;;12.52;100.00
35888;BME280;21990;42.540;23.496;2023-05-16T02:32:40;93159.47;;;12.54;100.00
35888;BME280;21990;42.540;23.496;2023-05-16T02:35:05;93169.06;;;12.51;100.00
35888;BME280;21990;42.540;23.496;2023-05-16T02:37:32;93161.34;;;12.51;100.00
35888;BME280;21990;42.540;23.496;2023-05-16T02:39:57;93154.38;;;12.52;100.00
35888;BME280;21990;42.540;23.496;2023-05-16T02:42:24;93153.06;;;12.53;100.00
35888;BME280;21990;42.540;23.496;2023-05-16T02:44:49;93162.50;;;12.56;100.00
35888;BME280;21990;42.540;23.496;2023-05-16T02:47:15;93154.03;;;12.56;100.00
35888;BME280;21990;42.540;23.496;2023-05-16T02:49:40;93160.63;;;12.58;100.00
35888;BME280;21990;42.540;23.496;2023-05-16T02:52:05;93152.91;;;12.59;100.00
35888;BME280;21990;42.540;23.496;2023-05-16T02:54:31;93152.91;;;12.59;100.00
35888;BME280;21990;42.540;23.496;2023-05-16T02:56:57;93149.69;;;12.55;100.00
35888;BME280;21990;42.540;23.496;2023-05-16T02:59:22;93150.44;;;12.55;100.00
35888;BME280;21990;42.540;23.496;2023-05-16T03:01:47;93144.03;;;12.55;100.00
35888;BME280;21990;42.540;23.496;2023-05-16T03:04:13;93145.28;;;12.46;100.00
35888;BME280;21990;42.540;23.496;2023-05-16T03:06:38;93149.28;;;12.51;100.00
35888;BME280;21990;42.540;23.496;2023-05-16T03:09:04;93146.47;;;12.51;100.00
35888;BME280;21990;42.540;23.496;2023-05-16T03:11:29;93147.34;;;12.46;100.00
35888;BME280;21990;42.540;23.496;2023-05-16T03:13:54;93151.34;;;12.50;100.00
35888;BME280;21990;42.540;23.496;2023-05-16T03:16:20;93150.41;;;12.48;100.00
35888;BME280;21990;42.540;23.496;2023-05-16T03:18:45;93150.72;;;12.36;100.00
35888;BME280;21990;42.540;23.496;2023-05-16T03:21:11;93157.25;;;12.31;100.00
35888;BME280;21990;42.540;23.496;2023-05-16T03:23:36;93147.84;;;12.29;100.00
35888;BME280;21990;42.540;23.496;2023-05-16T03:26:02;93147.19;;;12.44;100.00
35888;BME280;21990;42.540;23.496;2023-05-16T03:28:27;93157.22;;;12.52;100.00
35888;BME280;21990;42.540;23.496;2023-05-16T03:30:52;93166.38;;;12.45;100.00
35888;BME280;21990;42.540;23.496;2023-05-16T03:33:18;93147.97;;;12.52;100.00
35888;BME280;21990;42.540;23.496;2023-05-16T03:35:43;93150.63;;;12.57;100.00
35888;BME280;21990;42.540;23.496;2023-05-16T03:38:09;93155.78;;;12.66;100.00
35888;BME280;21990;42.540;23.496;2023-05-16T03:40:34;93149.59;;;12.68;100.00
35888;BME280;21990;42.540;23.496;2023-05-16T03:43:00;93139.00;;;12.68;100.00
35888;BME280;21990;42.540;23.496;2023-05-16T03:45:25;93143.31;;;12.62;100.00
35888;BME280;21990;42.540;23.496;2023-05-16T03:47:50;93139.38;;;12.65;100.00
35888;BME280;21990;42.540;23.496;2023-05-16T03:50:16;93130.53;;;12.68;100.00
35888;BME280;21990;42.540;23.496;2023-05-16T03:52:41;93136.03;;;12.74;100.00
35888;BME280;21990;42.540;23.496;2023-05-16T03:55:07;93136.44;;;12.78;100.00
35888;BME280;21990;42.540;23.496;2023-05-16T03:57:33;93133.25;;;12.81;100.00
35888;BME280;21990;42.540;23.496;2023-05-16T03:59:59;93130.63;;;12.83;100.00
35888;BME280;21990;42.540;23.496;2023-05-16T04:02:24;93138.75;;;12.87;100.00
35888;BME280;21990;42.540;23.496;2023-05-16T04:04:49;93142.53;;;12.90;100.00
35888;BME280;21990;42.540;23.496;2023-05-16T04:07:15;93143.59;;;12.79;100.00
35888;BME280;21990;42.540;23.496;2023-05-16T04:09:40;93139.13;;;12.83;100.00
35888;BME280;21990;42.540;23.496;2023-05-16T04:12:06;93134.53;;;12.73;100.00
35888;BME280;21990;42.540;23.496;2023-05-16T04:14:32;93154.72;;;12.77;100.00
35888;BME280;21990;42.540;23.496;2023-05-16T04:16:58;93149.09;;;12.84;100.00
35888;BME280;21990;42.540;23.496;2023-05-16T04:19:23;93158.16;;;12.83;100.00
35888;BME280;21990;42.540;23.496;2023-05-16T04:21:49;93151.91;;;12.84;100.00
35888;BME280;21990;42.540;23.496;2023-05-16T04:24:14;93160.56;;;12.79;100.00
35888;BME280;21990;42.540;23.496;2023-05-16T04:26:40;93141.19;;;12.83;100.00
35888;BME280;21990;42.540;23.496;2023-05-16T04:29:05;93157.06;;;12.94;100.00
35888;BME280;21990;42.540;23.496;2023-05-16T04:31:31;93152.34;;;12.96;100.00
35888;BME280;21990;42.540;23.496;2023-05-16T04:33:56;93152.19;;;13.02;100.00
35888;BME280;21990;42.540;23.496;2023-05-16T04:36:22;93147.47;;;13.04;100.00
35888;BME280;21990;42.540;23.496;2023-05-16T04:38:47;93155.59;;;13.08;100.00
35888;BME280;21990;42.540;23.496;2023-05-16T04:41:13;93155.28;;;13.11;100.00
35888;BME280;21990;42.540;23.496;2023-05-16T04:43:38;93147.47;;;13.04;100.00
35888;BME280;21990;42.540;23.496;2023-05-16T04:46:04;93142.59;;;13.05;100.00
35888;BME280;21990;42.540;23.496;2023-05-16T04:48:31;93152.38;;;13.04;100.00
35888;BME280;21990;42.540;23.496;2023-05-16T04:50:57;93148.03;;;12.95;100.00
35888;BME280;21990;42.540;23.496;2023-05-16T04:53:23;93143.72;;;13.02;100.00
35888;BME280;21990;42.540;23.496;2023-05-16T04:55:48;93147.31;;;13.02;100.00
35888;BME280;21990;42.540;23.496;2023-05-16T04:58:14;93148.06;;;13.03;100.00
35888;BME280;21990;42.540;23.496;2023-05-16T05:00:40;93150.31;;;13.04;100.00
35888;BME280;21990;42.540;23.496;2023-05-16T05:03:05;93144.25;;;13.00;100.00
35888;BME280;21990;42.540;23.496;2023-05-16T05:05:31;93145.78;;;13.01;100.00
35888;BME280;21990;42.540;23.496;2023-05-16T05:07:57;93150.09;;;12.95;100.00
35888;BME280;21990;42.540;23.496;2023-05-16T05:10:22;93146.00;;;13.03;100.00
35888;BME280;21990;42.540;23.496;2023-05-16T05:12:47;93140.34;;;13.03;100.00
35888;BME280;21990;42.540;23.496;2023-05-16T05:15:13;93149.56;;;13.04;100.00
35888;BME280;21990;42.540;23.496;2023-05-16T05:17:38;93159.97;;;13.09;100.00
35888;BME280;21990;42.540;23.496;2023-05-16T05:20:04;93158.72;;;13.17;100.00
35888;BME280;21990;42.540;23.496;2023-05-16T05:22:32;93160.59;;;13.15;100.00
35888;BME280;21990;42.540;23.496;2023-05-16T05:24:58;93155.50;;;13.21;100.00
35888;BME280;21990;42.540;23.496;2023-05-16T05:27:23;93157.22;;;13.24;100.00
35888;BME280;21990;42.540;23.496;2023-05-16T05:29:49;93154.59;;;13.26;100.00
35888;BME280;21990;42.540;23.496;2023-05-16T05:32:14;93158.72;;;13.25;100.00
35888;BME280;21990;42.540;23.496;2023-05-16T05:34:40;93147.41;;;13.25;100.00
35888;BME280;21990;42.540;23.496;2023-05-16T05:37:05;93139.09;;;13.27;100.00
35888;BME280;21990;42.540;23.496;2023-05-16T05:39:31;93153.47;;;13.29;100.00
35888;BME280;21990;42.540;23.496;2023-05-16T05:41:56;93148.19;;;13.25;100.00
35888;BME280;21990;42.540;23.496;2023-05-16T05:44:22;93139.72;;;13.33;100.00
35888;BME280;21990;42.540;23.496;2023-05-16T05:46:48;93136.50;;;13.37;100.00
35888;BME280;21990;42.540;23.496;2023-05-16T05:49:13;93136.28;;;13.27;100.00
35888;BME280;21990;42.540;23.496;2023-05-16T05:51:39;93124.97;;;13.27;100.00
35888;BME280;21990;42.540;23.496;2023-05-16T05:54:05;93120.06;;;13.27;100.00
35888;BME280;21990;42.540;23.496;2023-05-16T05:56:30;93124.22;;;13.26;100.00
35888;BME280;21990;42.540;23.496;2023-05-16T05:58:55;93121.97;;;13.32;100.00
35888;BME280;21990;42.540;23.496;2023-05-16T06:01:21;93127.25;;;13.36;100.00
35888;BME280;21990;42.540;23.496;2023-05-16T06:03:46;93129.16;;;13.34;100.00
35888;BME280;21990;42.540;23.496;2023-05-16T06:06:12;93128.56;;;13.35;100.00
35888;BME280;21990;42.540;23.496;2023-05-16T06:08:39;93124.97;;;13.35;100.00
35888;BME280;21990;42.540;23.496;2023-05-16T06:11:04;93134.47;;;13.45;100.00
35888;BME280;21990;42.540;23.496;2023-05-16T06:13:30;93146.53;;;13.45;100.00
35888;BME280;21990;42.540;23.496;2023-05-16T06:15:55;93148.25;;;13.48;100.00
35888;BME280;21990;42.540;23.496;2023-05-16T06:18:21;93144.84;;;13.50;100.00
35888;BME280;21990;42.540;23.496;2023-05-16T06:20:46;93140.13;;;13.52;100.00
35888;BME280;21990;42.540;23.496;2023-05-16T06:23:11;93132.19;;;13.51;100.00
35888;BME280;21990;42.540;23.496;2023-05-16T06:25:37;93127.88;;;13.57;100.00
35888;BME280;21990;42.540;23.496;2023-05-16T06:28:03;93122.03;;;13.55;100.00
35888;BME280;21990;42.540;23.496;2023-05-16T06:30:28;93128.78;;;13.45;100.00
35888;BME280;21990;42.540;23.496;2023-05-16T06:32:53;93140.31;;;13.54;100.00
35888;BME280;21990;42.540;23.496;2023-05-16T06:35:19;93141.66;;;13.53;100.00
35888;BME280;21990;42.540;23.496;2023-05-16T06:37:44;93128.28;;;13.61;100.00
35888;BME280;21990;42.540;23.496;2023-05-16T06:40:10;93135.44;;;13.62;100.00
35888;BME280;21990;42.540;23.496;2023-05-16T06:42:35;93127.13;;;13.64;100.00
35888;BME280;21990;42.540;23.496;2023-05-16T06:45:01;93122.03;;;13.70;99.71
35888;BME280;21990;42.540;23.496;2023-05-16T06:47:26;93121.09;;;13.75;99.50
35888;BME280;21990;42.540;23.496;2023-05-16T06:49:51;93119.03;;;13.76;99.38
35888;BME280;21990;42.540;23.496;2023-05-16T06:52:17;93122.03;;;13.78;99.08
35888;BME280;21990;42.540;23.496;2023-05-16T06:54:42;93118.47;;;13.77;99.47
35888;BME280;21990;42.540;23.496;2023-05-16T06:57:08;93108.84;;;13.81;98.94
35888;BME280;21990;42.540;23.496;2023-05-16T06:59:33;93115.63;;;13.77;99.05
35888;BME280;21990;42.540;23.496;2023-05-16T07:01:59;93107.13;;;13.85;98.81
35888;BME280;21990;42.540;23.496;2023-05-16T07:04:25;93127.53;;;13.91;98.64
35888;BME280;21990;42.540;23.496;2023-05-16T07:06:51;93123.41;;;13.92;98.10
35888;BME280;21990;42.540;23.496;2023-05-16T07:09:16;93126.03;;;13.98;98.29
35888;BME280;21990;42.540;23.496;2023-05-16T07:11:41;93118.50;;;13.93;98.38
35888;BME280;21990;42.540;23.496;2023-05-16T07:14:07;93103.38;;;13.98;98.02
35888;BME280;21990;42.540;23.496;2023-05-16T07:16:32;93094.09;;;14.05;98.01
35888;BME280;21990;42.540;23.496;2023-05-16T07:18:58;93104.31;;;14.08;97.38
35888;BME280;21990;42.540;23.496;2023-05-16T07:21:23;93085.44;;;14.10;97.53
35888;BME280;21990;42.540;23.496;2023-05-16T07:23:49;93097.53;;;14.03;97.38
35888;BME280;21990;42.540;23.496;2023-05-16T07:26:14;93089.19;;;14.13;97.61
35888;BME280;21990;42.540;23.496;2023-05-16T07:28:40;93101.66;;;14.25;97.61
35888;BME280;21990;42.540;23.496;2023-05-16T07:31:06;93098.06;;;14.24;97.31
35888;BME280;21990;42.540;23.496;2023-05-16T07:33:32;93114.31;;;14.32;96.98
35888;BME280;21990;42.540;23.496;2023-05-16T07:35:57;93103.91;;;14.34;95.89
35888;BME280;21990;42.540;23.496;2023-05-16T07:38:23;93111.28;;;14.45;95.47
35888;BME280;21990;42.540;23.496;2023-05-16T07:40:48;93109.59;;;14.49;96.16
35888;BME280;21990;42.540;23.496;2023-05-16T07:43:13;93098.63;;;14.53;95.43
35888;BME280;21990;42.540;23.496;2023-05-16T07:45:39;93096.53;;;14.61;95.03
35888;BME280;21990;42.540;23.496;2023-05-16T07:48:04;93111.44;;;14.69;94.18
35888;BME280;21990;42.540;23.496;2023-05-16T07:50:30;93119.72;;;14.75;94.48
35888;BME280;21990;42.540;23.496;2023-05-16T07:52:55;93113.66;;;14.79;94.66
35888;BME280;21990;42.540;23.496;2023-05-16T07:55:20;93114.41;;;14.87;94.13
35888;BME280;21990;42.540;23.496;2023-05-16T07:57:46;93105.13;;;14.94;93.25
35888;BME280;21990;42.540;23.496;2023-05-16T08:00:12;93091.66;;;15.02;93.40
35888;BME280;21990;42.540;23.496;2023-05-16T08:02:37;93092.25;;;15.00;92.53
35888;BME280;21990;42.540;23.496;2023-05-16T08:05:03;93073.88;;;15.09;92.17
35888;BME280;21990;42.540;23.496;2023-05-16T08:07:29;93078.75;;;15.16;92.33
35888;BME280;21990;42.540;23.496;2023-05-16T08:09:55;93079.09;;;15.20;91.91
35888;BME280;21990;42.540;23.496;2023-05-16T08:12:20;93079.06;;;15.28;92.21
35888;BME280;21990;42.540;23.496;2023-05-16T08:14:46;93087.88;;;15.39;91.18
35888;BME280;21990;42.540;23.496;2023-05-16T08:17:11;93085.97;;;15.42;90.65
35888;BME280;21990;42.540;23.496;2023-05-16T08:19:36;93098.44;;;15.46;91.20
35888;BME280;21990;42.540;23.496;2023-05-16T08:22:02;93094.25;;;15.55;89.46
35888;BME280;21990;42.540;23.496;2023-05-16T08:24:27;93097.47;;;15.59;89.64
35888;BME280;21990;42.540;23.496;2023-05-16T08:26:53;93103.09;;;15.66;88.04
35888;BME280;21990;42.540;23.496;2023-05-16T08:29:18;93099.13;;;15.62;88.62
35888;BME280;21990;42.540;23.496;2023-05-16T08:31:43;93093.09;;;15.58;87.64
35888;BME280;21990;42.540;23.496;2023-05-16T08:34:09;93100.41;;;15.68;88.44
35888;BME280;21990;42.540;23.496;2023-05-16T08:36:35;93103.59;;;15.73;87.74
35888;BME280;21990;42.540;23.496;2023-05-16T08:39:00;93095.84;;;15.73;87.34
35888;BME280;21990;42.540;23.496;2023-05-16T08:41:26;93100.00;;;15.72;87.18
35888;BME280;21990;42.540;23.496;2023-05-16T08:43:51;93089.75;;;15.77;88.04
35888;BME280;21990;42.540;23.496;2023-05-16T08:46:17;93096.13;;;15.85;88.45
35888;BME280;21990;42.540;23.496;2023-05-16T08:48:45;93090.06;;;15.88;87.53
35888;BME280;21990;42.540;23.496;2023-05-16T08:51:11;93081.41;;;16.03;87.37
35888;BME280;21990;42.540;23.496;2023-05-16T08:53:43;93093.06;;;16.15;86.63
35888;BME280;21990;42.540;23.496;2023-05-16T08:56:11;93078.31;;;16.34;85.95
35888;BME280;21990;42.540;23.496;2023-05-16T08:58:36;93093.38;;;16.44;85.70
35888;BME280;21990;42.540;23.496;2023-05-16T09:01:03;93091.78;;;16.50;85.14
35888;BME280;21990;42.540;23.496;2023-05-16T09:03:33;93092.13;;;16.54;85.90
35888;BME280;21990;42.540;23.496;2023-05-16T09:05:59;93091.56;;;16.56;83.73
35888;BME280;21990;42.540;23.496;2023-05-16T09:08:25;93096.09;;;16.59;85.37
35888;BME280;21990;42.540;23.496;2023-05-16T09:10:50;93087.69;;;16.69;85.38
35888;BME280;21990;42.540;23.496;2023-05-16T09:13:16;93079.16;;;16.69;83.46
35888;BME280;21990;42.540;23.496;2023-05-16T09:15:41;93067.44;;;16.65;84.23
35888;BME280;21990;42.540;23.496;2023-05-16T09:18:10;93070.28;;;16.65;83.68
35888;BME280;21990;42.540;23.496;2023-05-16T09:20:35;93072.03;;;16.60;84.05
35888;BME280;21990;42.540;23.496;2023-05-16T09:23:07;93074.50;;;16.56;83.47
35888;BME280;21990;42.540;23.496;2023-05-16T09:25:33;93067.50;;;16.57;85.20
35888;BME280;21990;42.540;23.496;2023-05-16T09:27:59;93074.13;;;16.59;84.58
35888;BME280;21990;42.540;23.496;2023-05-16T09:30:30;93086.09;;;16.50;84.50
35888;BME280;21990;42.540;23.496;2023-05-16T09:32:55;93089.38;;;16.47;84.53
35888;BME280;21990;42.540;23.496;2023-05-16T09:35:21;93083.53;;;16.45;84.71
35888;BME280;21990;42.540;23.496;2023-05-16T09:37:48;93084.03;;;16.51;84.84
35888;BME280;21990;42.540;23.496;2023-05-16T09:40:13;93094.41;;;16.56;85.19
35888;BME280;21990;42.540;23.496;2023-05-16T09:42:39;93086.06;;;16.58;84.69
35888;BME280;21990;42.540;23.496;2023-05-16T09:45:04;93080.13;;;16.64;84.98
35888;BME280;21990;42.540;23.496;2023-05-16T09:47:30;93079.22;;;16.61;84.27
35888;BME280;21990;42.540;23.496;2023-05-16T09:49:55;93074.44;;;16.64;84.85
35888;BME280;21990;42.540;23.496;2023-05-16T09:52:21;93077.97;;;16.72;83.82
35888;BME280;21990;42.540;23.496;2023-05-16T09:54:46;93077.22;;;16.71;83.84
35888;BME280;21990;42.540;23.496;2023-05-16T09:57:18;93074.59;;;16.66;84.64
35888;BME280;21990;42.540;23.496;2023-05-16T09:59:43;93085.09;;;16.80;83.29
35888;BME280;21990;42.540;23.496;2023-05-16T10:02:09;93076.28;;;16.86;83.18
35888;BME280;21990;42.540;23.496;2023-05-16T10:04:34;93086.81;;;16.93;83.56
35888;BME280;21990;42.540;23.496;2023-05-16T10:07:03;93075.69;;;17.04;84.12
35888;BME280;21990;42.540;23.496;2023-05-16T10:09:32;93105.66;;;17.23;82.72
35888;BME280;21990;42.540;23.496;2023-05-16T10:12:01;93087.53;;;17.28;81.47
35888;BME280;21990;42.540;23.496;2023-05-16T10:14:29;93076.47;;;17.32;82.44
35888;BME280;21990;42.540;23.496;2023-05-16T10:16:56;93063.94;;;17.35;80.95
35888;BME280;21990;42.540;23.496;2023-05-16T10:19:21;93086.38;;;17.31;80.92
35888;BME280;21990;42.540;23.496;2023-05-16T10:21:50;93062.56;;;17.36;80.66
35888;BME280;21990;42.540;23.496;2023-05-16T10:24:19;93060.34;;;17.34;81.93
35888;BME280;21990;42.540;23.496;2023-05-16T10:26:46;93064.38;;;17.31;80.66
35888;BME280;21990;42.540;23.496;2023-05-16T10:29:11;93046.44;;;17.21;80.56
35888;BME280;21990;42.540;23.496;2023-05-16T10:31:37;93050.06;;;17.22;81.28
35888;BME280;21990;42.540;23.496;2023-05-16T10:34:03;93053.69;;;17.32;79.72
35888;BME280;21990;42.540;23.496;2023-05-16T10:36:28;93034.59;;;17.42;81.82
35888;BME280;21990;42.540;23.496;2023-05-16T10:38:55;93044.00;;;17.35;79.87
35888;BME280;21990;42.540;23.496;2023-05-16T10:41:21;93037.16;;;17.47;80.07
35888;BME280;21990;42.540;23.496;2023-05-16T10:43:56;93040.84;;;17.58;81.26
35888;BME280;21990;42.540;23.496;2023-05-16T10:46:22;93033.41;;;17.72;81.16
35888;BME280;21990;42.540;23.496;2023-05-16T10:48:47;93041.16;;;17.88;79.33
35888;BME280;21990;42.540;23.496;2023-05-16T10:53:51;93027.22;;;18.02;76.75
35888;BME280;21990;42.540;23.496;2023-05-16T10:56:21;93020.19;;;18.03;77.96
35888;BME280;21990;42.540;23.496;2023-05-16T10:58:47;93021.88;;;18.16;77.10
35888;BME280;21990;42.540;23.496;2023-05-16T11:06:24;93029.59;;;18.42;77.08
35888;BME280;21990;42.540;23.496;2023-05-16T11:14:25;93032.44;;;18.42;75.92
35888;BME280;21990;42.540;23.496;2023-05-16T11:20:01;93022.06;;;18.27;77.82
35888;BME280;21990;42.540;23.496;2023-05-16T11:22:09;93016.38;;;18.37;76.89
35888;BME280;21990;42.540;23.496;2023-05-16T11:24:36;93020.31;;;18.51;76.43
35888;BME280;21990;42.540;23.496;2023-05-16T11:27:03;93015.53;;;18.54;75.50
35888;BME280;21990;42.540;23.496;2023-05-16T11:29:32;93015.69;;;18.56;75.56
35888;BME280;21990;42.540;23.496;2023-05-16T11:31:59;93001.56;;;18.58;75.71
35888;BME280;21990;42.540;23.496;2023-05-16T11:34:24;93025.03;;;18.75;75.43
35888;BME280;21990;42.540;23.496;2023-05-16T11:36:50;93019.75;;;18.72;75.20
35888;BME280;21990;42.540;23.496;2023-05-16T11:39:15;93016.16;;;18.71;75.90
35888;BME280;21990;42.540;23.496;2023-05-16T11:41:41;93004.88;;;18.64;76.27
35888;BME280;21990;42.540;23.496;2023-05-16T11:44:09;93018.25;;;18.71;75.78
35888;BME280;21990;42.540;23.496;2023-05-16T11:46:37;93016.16;;;18.81;75.39
35888;BME280;21990;42.540;23.496;2023-05-16T11:49:03;93015.09;;;18.67;75.00
35888;BME280;21990;42.540;23.496;2023-05-16T11:51:28;93005.34;;;18.70;76.37
35888;BME280;21990;42.540;23.496;2023-05-16T11:53:54;93015.38;;;18.52;76.40
35888;BME280;21990;42.540;23.496;2023-05-16T11:56:19;92995.56;;;18.54;77.40
35888;BME280;21990;42.540;23.496;2023-05-16T11:58:46;92990.75;;;18.66;77.67
35888;BME280;21990;42.540;23.496;2023-05-16T12:01:11;93007.16;;;18.75;78.34
35888;BME280;21990;42.540;23.496;2023-05-16T12:03:37;93007.91;;;18.94;76.90
35888;BME280;21990;42.540;23.496;2023-05-16T12:06:03;93009.06;;;19.11;77.46
35888;BME280;21990;42.540;23.496;2023-05-16T12:08:28;92998.56;;;19.13;74.69
35888;BME280;21990;42.540;23.496;2023-05-16T12:10:54;93000.38;;;19.09;75.05
35888;BME280;21990;42.540;23.496;2023-05-16T12:13:20;92997.06;;;19.12;74.38
35888;BME280;21990;42.540;23.496;2023-05-16T12:15:46;92986.81;;;19.28;73.26
35888;BME280;21990;42.540;23.496;2023-05-16T12:18:12;92980.22;;;19.26;72.92
35888;BME280;21990;42.540;23.496;2023-05-16T12:20:38;92974.03;;;19.20;73.83
35888;BME280;21990;42.540;23.496;2023-05-16T12:23:04;92985.31;;;19.18;70.91
35888;BME280;21990;42.540;23.496;2023-05-16T12:25:30;92980.50;;;19.20;70.97
35888;BME280;21990;42.540;23.496;2023-05-16T12:27:57;92968.03;;;19.16;70.68
35888;BME280;21990;42.540;23.496;2023-05-16T12:30:23;92963.81;;;19.17;71.92
35888;BME280;21990;42.540;23.496;2023-05-16T12:33:07;92966.22;;;19.20;70.74
35888;BME280;21990;42.540;23.496;2023-05-16T12:35:34;92952.53;;;19.19;70.97
35888;BME280;21990;42.540;23.496;2023-05-16T12:38:02;92961.84;;;19.19;71.34
35888;BME280;21990;42.540;23.496;2023-05-16T12:40:28;92945.19;;;19.25;71.01
35888;BME280;21990;42.540;23.496;2023-05-16T12:42:54;92946.94;;;19.30;71.51
35888;BME280;21990;42.540;23.496;2023-05-16T12:45:20;92945.41;;;19.39;71.12
35888;BME280;21990;42.540;23.496;2023-05-16T12:47:46;92943.00;;;19.55;72.07
35888;BME280;21990;42.540;23.496;2023-05-16T12:50:11;92946.91;;;19.50;69.78
35888;BME280;21990;42.540;23.496;2023-05-16T12:52:49;92965.47;;;19.29;69.25
35888;BME280;21990;42.540;23.496;2023-05-16T12:55:19;92975.84;;;19.25;70.46
35888;BME280;21990;42.540;23.496;2023-05-16T12:57:45;92956.91;;;19.29;70.87
35888;BME280;21990;42.540;23.496;2023-05-16T13:00:14;92961.09;;;19.19;70.43
35888;BME280;21990;42.540;23.496;2023-05-16T13:02:40;92964.41;;;19.15;71.59
35888;BME280;21990;42.540;23.496;2023-05-16T13:05:06;92965.34;;;19.08;70.01
35888;BME280;21990;42.540;23.496;2023-05-16T13:07:32;92957.81;;;19.03;71.64
35888;BME280;21990;42.540;23.496;2023-05-16T13:09:57;92979.78;;;18.91;69.57
35888;BME280;21990;42.540;23.496;2023-05-16T13:12:22;92966.72;;;18.88;71.37